Latest Weather Observations for Bundaberg

IDQ60801

Issued at 9:35 pm EST Friday 1 August 2014 (issued every 30 minutes, with the page automatically refreshed every 10 minutes)

About weather observations | Map of weather stations | Latest weather observations for QLD | Other Formats
Station Details ID: 039128 Name: BUNDABERG AERO Lat: -24.91 Lon: 152.32 Height: 30.82 m
Data from the previous 72 hours. | See also: Recent months at Bundaberg
Date/Time
EST
Temp
°C
App
Temp
°C
Dew
Point
Rel
Hum
%
Delta-T
°C
Wind Press
QNH
hPa
Press
MSL
hPa
Rain
since 9 am
mm
Dir
 
Spd
km/h
Gust
km/h
Spd
kts
Gust
kts
01/09:30pm 18.9 17.5 17.0 89 1.1 N 20 24 11 13 1016.9 - 0.0
01/09:00pm 18.7 17.4 16.8 89 1.1 N 19 24 10 13 1016.7 1016.6 0.0
01/08:30pm 18.7 17.5 17.0 90 1.0 NNW 19 20 10 11 1016.5 - 0.0
01/08:00pm 19.3 17.3 17.3 88 1.2 NNW 24 30 13 16 1016.1 - 0.0
01/07:30pm 19.2 17.5 17.2 88 1.2 NNW 22 26 12 14 1015.7 - 0.0
01/07:00pm 19.3 17.8 16.7 85 1.6 N 20 24 11 13 1015.4 - 0.0
01/06:30pm 19.8 18.3 16.8 83 1.8 N 20 26 11 14 1015.1 - 0.0
01/06:00pm 20.1 18.4 16.3 79 2.3 N 20 24 11 13 1014.7 1014.6 0.0
01/05:30pm 20.8 18.5 15.8 73 3.0 N 22 30 12 16 1014.5 - 0.0
01/05:00pm 21.7 19.3 15.3 67 3.8 N 22 30 12 16 1014.3 - 0.0
01/04:30pm 22.7 19.3 14.8 61 4.7 N 26 32 14 17 1014.1 - 0.0
01/04:00pm 23.9 20.0 14.3 55 5.7 N 28 35 15 19 1014.0 - 0.0
01/03:30pm 23.6 19.6 14.0 55 5.6 N 28 35 15 19 1013.8 - 0.0
01/03:00pm 25.8 22.0 14.6 50 6.7 N 28 35 15 19 1013.7 1013.6 0.0
01/02:30pm 24.3 20.8 13.5 51 6.3 N 24 30 13 16 1014.0 - 0.0
01/02:00pm 26.3 21.8 10.0 36 9.1 N 24 33 13 18 1014.2 - 0.0
01/01:30pm 26.5 23.1 13.6 45 7.6 N 24 33 13 18 1014.5 - 0.0
01/01:00pm 26.4 23.3 14.5 48 7.1 N 24 30 13 16 1014.8 - 0.0
01/12:30pm 26.0 22.7 14.1 47 7.1 N 24 32 13 17 1015.4 - 0.0
01/12:00pm 26.1 22.8 13.9 47 7.2 N 24 30 13 16 1016.1 1016.0 0.0
01/11:30am 25.6 21.8 12.4 43 7.6 N 24 33 13 18 1016.7 - 0.0
01/11:00am 25.7 22.5 14.2 49 6.8 NNW 24 32 13 17 1017.0 - 0.0
01/10:30am 24.9 21.2 13.8 50 6.5 NNW 26 32 14 17 1017.4 - 0.0
01/10:00am 23.6 20.6 14.9 58 5.2 NNW 24 30 13 16 1018.0 - 0.0
01/09:30am 22.4 20.9 16.4 69 3.6 NNW 19 24 10 13 1018.3 - 0.0
01/09:00am 20.6 20.1 15.8 74 2.9 NW 13 17 7 9 1018.3 1018.3 0.0
01/08:30am 19.1 19.2 15.6 80 2.1 NW 9 13 5 7 1018.3 - 0.0
01/08:00am 16.8 18.7 15.8 94 0.6 CALM 0 0 0 0 1018.2 - 0.0
01/07:30am 14.0 15.1 13.4 96 0.3 CALM 0 0 0 0 1018.2 - 0.0
01/07:20am 13.4 14.3 12.9 97 0.3 CALM 0 0 0 0 1018.1 - 0.0
01/07:11am 13.0 13.8 12.7 98 0.2 CALM 0 4 0 2 1018.0 - 0.0
01/07:06am 12.6 12.9 12.3 98 0.2 W 2 6 1 3 1017.9 - 0.0
01/07:00am 12.3 11.8 12.0 98 0.2 W 6 7 3 4 1017.9 - 0.0
01/06:52am 12.2 11.5 11.9 98 0.2 W 7 9 4 5 1017.9 - 0.0
01/06:38am 11.7 12.0 10.9 95 0.4 CALM 0 0 0 0 1017.8 - 0.0
01/06:31am 11.8 11.4 11.2 96 0.3 W 4 6 2 3 1017.7 - 0.0
01/06:30am 11.8 11.4 11.0 95 0.4 W 4 6 2 3 1017.7 - 0.0
01/06:24am 11.7 10.9 11.1 96 0.3 W 6 6 3 3 1017.7 - 0.0
01/06:00am 12.1 11.4 11.5 96 0.3 W 6 6 3 3 1017.5 1017.5 0.0
01/05:48am 12.3 11.6 12.0 98 0.2 W 7 9 4 5 1017.4 - 0.0
01/05:37am 12.7 12.1 12.4 98 0.2 WNW 7 9 4 5 1017.3 - 0.0
01/05:30am 12.3 11.2 11.8 97 0.3 WNW 9 11 5 6 1017.3 - 0.0
01/05:00am 12.7 11.7 12.2 97 0.3 WNW 9 11 5 6 1017.1 - 0.0
01/04:48am 13.6 13.3 13.3 98 0.2 WNW 7 9 4 5 1017.0 - 0.0
01/04:32am 13.6 13.3 13.4 99 0.1 NNW 7 9 4 5 1016.9 - 0.0
01/04:30am 13.5 13.2 13.3 99 0.1 NNW 7 9 4 5 1016.9 - 0.0
01/04:00am 12.4 12.8 11.3 93 0.6 CALM 0 0 0 0 1016.8 - 0.0
01/03:40am 13.6 14.6 13.1 97 0.3 CALM 0 0 0 0 1016.9 - 0.0
01/03:30am 13.7 14.7 13.2 97 0.3 CALM 0 0 0 0 1016.9 - 0.0
01/03:19am 13.8 14.8 13.3 97 0.3 CALM 0 0 0 0 1017.0 - 0.0
01/03:00am 13.6 13.4 13.0 96 0.3 N 6 9 3 5 1017.3 1017.3 0.0
01/02:30am 13.4 13.8 12.5 94 0.5 N 2 9 1 5 1017.6 - 0.0
01/02:00am 13.7 14.7 13.1 96 0.3 CALM 0 0 0 0 1017.9 - 0.0
01/01:30am 13.6 13.3 12.8 95 0.4 ENE 6 9 3 5 1018.1 - 0.0
01/01:00am 14.3 13.6 13.3 94 0.6 NW 9 11 5 6 1018.2 - 0.0
01/12:59am 14.3 13.6 13.3 94 0.6 NW 9 11 5 6 1018.2 - 0.0
01/12:44am 14.9 14.9 14.3 96 0.3 NW 7 9 4 5 1018.3 - 0.0
01/12:32am 14.8 14.7 14.0 95 0.5 NW 7 7 4 4 1018.4 - 0.0
01/12:30am 14.8 14.7 14.0 95 0.5 NW 7 7 4 4 1018.4 - 0.0
01/12:23am 15.0 15.1 14.4 96 0.3 NW 7 7 4 4 1018.5 - 0.0
01/12:00am 14.8 14.8 13.7 93 0.6 NW 6 6 3 3 1018.6 1018.6 0.0
 
Date/Time
EST
Temp
°C
App
Temp
°C
Dew
Point
Rel
Hum
%
Delta-T
°C
Wind Press
QNH
hPa
Press
MSL
hPa
Rain
since 9 am
mm
Dir
 
Spd
km/h
Gust
km/h
Spd
kts
Gust
kts
31/11:30pm 14.8 14.7 13.8 94 0.6 W 7 9 4 5 1018.7 - 0.0
31/11:00pm 14.9 14.4 13.9 94 0.6 W 9 9 5 5 1018.7 - 0.0
31/10:30pm 15.7 15.3 14.2 91 0.9 NNW 9 11 5 6 1018.6 - 0.0
31/10:00pm 15.5 14.8 13.3 87 1.2 NNW 9 11 5 6 1018.7 - 0.0
31/09:30pm 17.4 17.4 14.3 82 1.8 N 7 9 4 5 1018.6 - 0.0
31/09:00pm 17.6 17.6 14.3 81 1.9 WNW 7 9 4 5 1018.6 1018.6 0.0
31/08:30pm 19.0 18.4 14.5 75 2.6 N 11 15 6 8 1018.5 - 0.0
31/08:00pm 19.2 18.0 14.0 72 3.0 NNE 13 15 7 8 1018.1 - 0.0
31/07:30pm 19.3 18.1 13.9 71 3.1 NNE 13 15 7 8 1018.0 - 0.0
31/07:00pm 19.4 18.7 14.4 73 2.9 NNE 11 15 6 8 1017.8 - 0.0
31/06:30pm 19.4 18.2 14.0 71 3.1 NNE 13 19 7 10 1017.7 - 0.0
31/06:00pm 19.9 18.5 13.4 66 3.7 NNE 13 17 7 9 1017.6 1017.6 0.0
31/05:30pm 20.2 18.8 13.4 65 3.9 NNE 13 17 7 9 1017.4 - 0.0
31/05:00pm 20.3 18.3 14.0 67 3.6 NNE 17 20 9 11 1017.5 - 0.0
31/04:30pm 20.5 19.1 14.6 69 3.5 NNE 15 20 8 11 1017.5 - 0.0
31/04:00pm 20.7 18.6 14.6 68 3.6 NNE 19 22 10 12 1017.4 - 0.0
31/03:30pm 21.1 18.5 13.8 63 4.2 NNE 20 28 11 15 1017.4 - 0.0
31/03:00pm 22.0 18.5 12.3 54 5.5 N 22 28 12 15 1017.5 1017.5 0.0
31/02:30pm 22.7 19.5 12.0 50 6.0 N 20 26 11 14 1017.5 - 0.0
31/02:00pm 22.9 20.5 12.8 53 5.8 N 17 26 9 14 1017.7 - 0.0
31/01:30pm 23.9 21.5 12.5 49 6.5 NNE 17 24 9 13 1018.2 - 0.0
31/01:00pm 22.8 20.2 13.3 55 5.5 NNE 19 24 10 13 1018.7 - 0.0
31/12:30pm 23.3 21.4 11.7 48 6.5 NNE 13 20 7 11 1019.2 - 0.0
31/12:00pm 23.8 21.9 10.5 43 7.3 N 11 19 6 10 1019.7 1019.7 0.0
31/11:30am 22.9 22.7 11.9 50 6.2 SE 4 7 2 4 1020.1 - 0.0
31/11:00am 22.6 22.3 12.8 54 5.6 NNW 6 15 3 8 1020.8 - 0.0
31/10:30am 22.0 21.8 13.1 57 5.1 SW 6 11 3 6 1021.5 - 0.0
31/10:00am 20.7 20.3 12.4 59 4.7 S 6 9 3 5 1021.8 - 0.0
31/09:30am 19.3 18.2 11.8 62 4.1 S 9 13 5 7 1021.9 - 0.0
31/09:00am 18.1 16.8 11.4 65 3.6 S 9 13 5 7 1021.9 1021.9 0.0
31/08:30am 15.9 15.4 12.6 81 1.8 S 7 9 4 5 1022.2 - 0.0
31/08:00am 13.6 13.0 11.7 88 1.0 S 6 7 3 4 1022.0 - 0.0
31/07:30am 11.9 11.1 11.0 94 0.5 S 6 7 3 4 1021.7 - 0.0
31/07:00am 9.9 8.4 9.1 95 0.4 S 7 9 4 5 1021.4 - 0.0
31/06:30am 8.4 7.8 7.5 94 0.4 CALM 0 0 0 0 1020.9 - 0.0
31/06:00am 8.9 8.4 8.0 94 0.4 CALM 0 0 0 0 1020.8 1020.8 0.0
31/05:30am 9.1 8.7 8.2 94 0.4 CALM 0 0 0 0 1020.7 - 0.0
31/05:00am 9.2 8.1 8.3 94 0.4 S 4 7 2 4 1020.5 - 0.0
31/04:30am 9.2 8.8 8.3 94 0.4 CALM 0 6 0 3 1020.4 - 0.0
31/04:00am 9.1 7.3 8.0 93 0.5 SSE 7 9 4 5 1020.5 - 0.0
31/03:30am 9.3 7.7 8.1 92 0.6 SSE 6 9 3 5 1020.4 - 0.0
31/03:00am 9.5 8.0 8.6 94 0.4 SSW 6 9 3 5 1020.3 1020.3 0.0
31/02:51am 10.0 9.1 9.2 95 0.4 WSW 4 9 2 5 1020.2 - 0.0
31/02:41am 10.2 10.1 9.6 96 0.3 CALM 0 0 0 0 1020.3 - 0.0
31/02:30am 10.3 10.2 9.5 95 0.4 CALM 0 0 0 0 1020.4 - 0.0
31/02:00am 10.2 10.1 9.3 94 0.4 CALM 0 0 0 0 1020.6 - 0.0
31/01:30am 10.5 10.3 9.1 91 0.7 CALM 0 0 0 0 1020.7 - 0.0
31/01:00am 11.3 11.4 10.0 92 0.7 CALM 0 0 0 0 1020.9 - 0.0
31/12:30am 11.5 11.2 10.2 92 0.7 WSW 2 6 1 3 1021.0 - 0.0
31/12:00am 11.7 10.6 9.9 89 0.9 W 6 7 3 4 1021.0 1021.0 0.0
 
Date/Time
EST
Temp
°C
App
Temp
°C
Dew
Point
Rel
Hum
%
Delta-T
°C
Wind Press
QNH
hPa
Press
MSL
hPa
Rain
since 9 am
mm
Dir
 
Spd
km/h
Gust
km/h
Spd
kts
Gust
kts
30/11:30pm 12.0 11.6 9.6 85 1.2 WSW 2 7 1 4 1021.2 - 0.0
30/11:00pm 13.6 13.0 12.3 92 0.7 W 7 9 4 5 1021.4 - 0.0
30/10:30pm 13.3 12.6 11.9 91 0.8 NNW 7 11 4 6 1021.4 - 0.0
30/10:00pm 14.6 14.5 13.8 95 0.4 WNW 7 9 4 5 1021.6 - 0.0
30/09:30pm 13.4 12.7 12.0 91 0.8 NW 7 9 4 5 1021.6 - 0.0
30/09:00pm 14.8 14.6 13.0 89 1.0 N 6 6 3 3 1021.6 1021.6 0.0
30/08:30pm 15.4 15.1 13.4 88 1.1 NNW 7 7 4 4 1021.5 - 0.0
30/08:00pm 15.0 14.0 12.3 84 1.5 N 9 9 5 5 1021.3 - 0.0
30/07:30pm 17.0 16.3 13.3 79 2.1 N 9 13 5 7 1021.1 - 0.0
30/07:00pm 17.0 15.8 12.7 76 2.4 NNE 11 13 6 7 1020.8 - 0.0
30/06:30pm 17.7 16.2 11.9 69 3.2 N 11 13 6 7 1020.5 - 0.0
30/06:00pm 18.8 16.6 10.9 60 4.3 N 13 19 7 10 1020.2 1020.2 0.0
30/05:30pm 20.0 16.9 8.7 48 5.9 N 15 19 8 10 1019.9 - 0.0
30/05:00pm 21.3 17.1 7.5 41 7.1 N 19 24 10 13 1019.7 - 0.0
30/04:30pm 22.2 17.4 7.2 38 7.7 N 22 28 12 15 1019.4 - 0.0
30/04:00pm 23.0 17.9 7.5 37 8.1 N 24 30 13 16 1019.2 - 0.0
30/03:30pm 23.9 19.0 6.7 33 8.9 N 22 26 12 14 1019.1 - 0.0
30/03:00pm 24.1 19.2 6.8 33 9.0 NNE 22 26 12 14 1019.2 1019.2 0.0
30/02:30pm 24.3 20.0 7.9 35 8.7 N 20 28 11 15 1019.4 - 0.0
30/02:00pm 25.1 21.0 8.6 35 8.9 N 20 28 11 15 1019.7 - 0.0
30/01:30pm 24.3 20.1 8.3 36 8.5 N 20 30 11 16 1020.2 - 0.0
30/01:00pm 24.9 21.2 9.6 38 8.4 N 19 28 10 15 1020.6 - 0.0
30/12:30pm 24.4 21.4 9.2 38 8.2 N 15 24 8 13 1021.2 - 0.0
30/12:00pm 25.1 22.7 10.2 39 8.2 N 13 20 7 11 1021.9 1021.9 0.0
30/11:30am 23.4 21.3 9.8 42 7.4 NNW 11 20 6 11 1022.6 - 0.0
30/11:00am 23.4 20.7 10.5 44 7.1 NW 15 20 8 11 1023.1 - 0.0
30/10:30am 22.5 19.5 10.6 47 6.6 NW 17 28 9 15 1023.6 - 0.0
30/10:00am 21.6 19.1 11.0 51 5.8 WNW 15 19 8 10 1024.1 - 0.0
30/09:30am 20.4 18.3 11.1 55 5.1 WNW 13 15 7 8 1024.2 - 0.0
30/09:00am 18.8 18.2 12.3 66 3.6 WSW 7 11 4 6 1024.3 1024.3 0.0
30/08:30am 15.7 15.4 12.8 83 1.6 SW 6 9 3 5 1024.2 - 0.0
30/08:00am 12.5 12.2 11.6 94 0.5 S 4 7 2 4 1024.1 - 0.0
30/07:37am 11.2 10.1 10.7 97 0.3 S 7 9 4 5 1023.9 - 0.0
30/07:30am 10.7 9.1 10.2 97 0.3 S 9 11 5 6 1023.8 - 0.0
30/07:15am 10.2 8.8 9.7 97 0.3 S 7 13 4 7 1023.6 - 0.0
30/07:12am 10.1 8.9 9.6 97 0.3 S 6 9 3 5 1023.6 - 0.0
30/07:00am 9.9 8.7 9.4 97 0.2 S 6 7 3 4 1023.3 - 0.0
30/06:45am 10.5 8.5 10.2 98 0.2 S 11 15 6 8 1023.2 - 0.0
30/06:30am 8.7 8.3 8.1 96 0.3 CALM 0 7 0 4 1022.9 - 0.0
30/06:22am 8.8 8.3 7.9 94 0.4 CALM 0 0 0 0 1022.8 - 0.0
30/06:12am 8.9 8.5 8.1 95 0.4 CALM 0 0 0 0 1022.7 - 0.0
30/06:00am 9.8 9.7 9.3 97 0.2 CALM 0 0 0 0 1022.5 1022.5 0.0
30/05:33am 9.6 9.4 9.1 97 0.2 CALM 0 0 0 0 1022.2 - 0.0
30/05:30am 10.0 9.9 9.5 97 0.2 CALM 0 0 0 0 1022.1 - 0.0
30/05:00am 9.0 8.5 7.9 93 0.5 CALM 0 0 0 0 1021.9 - 0.0
30/04:30am 9.0 8.5 7.8 92 0.6 CALM 0 0 0 0 1021.9 - 0.0
30/04:00am 9.4 9.0 8.3 93 0.5 CALM 0 0 0 0 1021.7 - 0.0
30/03:57am 9.4 9.0 8.3 93 0.5 CALM 0 0 0 0 1021.7 - 0.0
30/03:39am 10.0 9.5 9.5 97 0.2 W 2 7 1 4 1021.6 - 0.0
30/03:36am 10.4 9.7 10.1 98 0.2 W 4 7 2 4 1021.6 - 0.0
30/03:30am 10.7 9.5 10.2 97 0.3 W 7 7 4 4 1021.6 - 0.0
30/03:01am 10.3 8.9 9.5 95 0.4 W 7 7 4 4 1021.6 - 0.0
30/03:00am 9.7 8.1 8.9 95 0.4 W 7 7 4 4 1021.6 1021.6 0.0
30/02:51am 10.4 9.1 9.8 96 0.3 W 7 9 4 5 1021.6 - 0.0
30/02:30am 10.5 10.5 9.7 95 0.4 CALM 0 7 0 4 1021.6 - 0.0
30/02:27am 10.4 10.3 9.6 95 0.4 CALM 0 0 0 0 1021.5 - 0.0
30/02:26am 10.4 10.3 9.6 95 0.4 CALM 0 0 0 0 1021.5 - 0.0
30/02:00am 10.0 9.7 8.6 91 0.7 CALM 0 0 0 0 1021.6 - 0.0
30/01:30am 11.0 11.1 10.2 95 0.4 CALM 0 0 0 0 1021.6 - 0.0
30/01:01am 11.1 11.2 10.0 93 0.6 CALM 0 0 0 0 1021.7 - 0.0
30/01:00am 11.2 11.3 10.1 93 0.6 CALM 0 0 0 0 1021.7 - 0.0
30/12:56am 11.5 11.7 10.6 94 0.5 CALM 0 0 0 0 1021.7 - 0.0
30/12:31am 11.8 12.0 10.7 93 0.6 CALM 0 0 0 0 1021.8 - 0.0
30/12:30am 12.0 12.3 10.9 93 0.6 CALM 0 0 0 0 1021.8 - 0.0
30/12:00am 12.7 12.2 11.9 95 0.4 WNW 6 7 3 4 1021.8 1021.8 0.0
 
Date/Time
EST
Temp
°C
App
Temp
°C
Dew
Point
Rel
Hum
%
Delta-T
°C
Wind Press
QNH
hPa
Press
MSL
hPa
Rain
since 9 am
mm
Dir
 
Spd
km/h
Gust
km/h
Spd
kts
Gust
kts
29/11:45pm 12.6 12.6 11.3 92 0.7 WNW 2 6 1 3 1021.8 - 0.0
29/11:30pm 13.7 13.5 13.1 96 0.3 W 6 7 3 4 1021.8 - 0.0
29/11:00pm 13.4 13.0 12.5 94 0.5 WNW 6 7 3 4 1021.9 - 0.0
29/10:30pm 13.2 12.2 12.3 94 0.5 NW 9 9 5 5 1022.0 - 0.0
29/10:00pm 12.6 10.9 11.3 92 0.7 NW 11 13 6 7 1022.0 - 0.0

Other Formats:

Comma delimited format used in spreadsheet applications
http://www.bom.gov.au/fwo/IDQ60801/IDQ60801.94387.axf

JavaScript Object Notation format (JSON) in row-major order
http://www.bom.gov.au/fwo/IDQ60801/IDQ60801.94387.json